Terminal Aerodrome Forecast
Issued by NWS

Home | Current Version | Previous Version | Graphics & Text | Print | Product List | Glossary On
Versions: 1 2 3 4 5 6 7 8 9 10 11 12 13 14 15 16 17 18 19
000
FTUS43 KBIS 261100
TAFDIK
TAF
KDIK 261125Z 2612/2712 28010KT P6SM SKC
     FM261400 29020G30KT P6SM SCT080
     FM261800 30025G35KT P6SM SCT080
     FM270200 31012KT P6SM FEW080=

USA.gov is the U.S. government's official web portal to all federal, state and local government web resources and services.